Time;durP1;ratioP1;P1;durP2;ratioP2;P2;SDS_P1;SDS_P2;PMS_P1;PMS_P2;Temp;Humidity;BMP_temperature;BMP_pressure;BME280_temperature;BME280_humidity;BME280_pressure;Samples;Min_cycle;Max_cycle;Signal;HPM_P1;HPM_P2
2023/11/25 00:01:03;;;;;;;23.83;3.45;;;4.20;99.90;;;;;;4999620;28;20183;-79
2023/11/25 00:03:28;;;;;;;26.35;2.83;;;4.10;99.90;;;;;;4999737;28;20280;-80
2023/11/25 00:05:54;;;;;;;21.07;3.57;;;4.10;99.90;;;;;;5017911;28;20170;-79
2023/11/25 00:08:20;;;;;;;21.20;2.93;;;4.10;99.90;;;;;;5017670;28;20224;-79
2023/11/25 00:10:47;;;;;;;19.85;2.53;;;4.10;99.90;;;;;;4999942;28;20270;-79
2023/11/25 00:13:14;;;;;;;20.65;2.55;;;4.10;99.90;;;;;;5000033;28;20203;-79
2023/11/25 00:15:40;;;;;;;22.13;2.75;;;4.10;99.90;;;;;;5017689;28;20157;-79
2023/11/25 00:18:07;;;;;;;19.70;2.57;;;4.10;99.90;;;;;;5019500;28;20185;-80
2023/11/25 00:20:36;;;;;;;20.92;2.80;;;4.20;99.90;;;;;;5019150;28;20250;-79
2023/11/25 00:23:02;;;;;;;21.30;2.35;;;4.10;99.90;;;;;;5017787;28;20697;-79
2023/11/25 00:25:27;;;;;;;28.70;2.55;;;4.10;99.90;;;;;;5018769;28;20585;-80
2023/11/25 00:27:56;;;;;;;18.80;2.07;;;4.10;99.90;;;;;;5019938;28;20249;-79
2023/11/25 00:30:23;;;;;;;22.45;2.17;;;4.10;99.90;;;;;;5003992;28;20170;-79
2023/11/25 00:32:50;;;;;;;20.67;2.38;;;4.00;99.90;;;;;;5022299;28;20192;-80
2023/11/25 00:35:15;;;;;;;28.58;2.50;;;4.10;99.90;;;;;;5001266;28;20210;-80
2023/11/25 00:37:42;;;;;;;28.23;2.20;;;4.00;99.90;;;;;;5018746;28;20546;-80
2023/11/25 00:40:14;;;;;;;20.83;1.83;;;4.10;99.90;;;;;;5018844;28;20578;-79
2023/11/25 00:42:39;;;;;;;27.10;2.22;;;4.10;99.90;;;;;;5018753;28;20158;-79
2023/11/25 00:45:07;;;;;;;18.43;2.30;;;4.10;99.90;;;;;;5018405;28;20190;-80
2023/11/25 00:47:33;;;;;;;22.02;3.42;;;4.00;99.90;;;;;;5018785;28;20436;-80
2023/11/25 00:50:00;;;;;;;20.98;1.90;;;4.00;99.90;;;;;;5018708;28;20650;-80
2023/11/25 00:52:25;;;;;;;21.27;1.83;;;4.00;99.90;;;;;;5017006;28;20181;-80
2023/11/25 00:54:51;;;;;;;24.43;2.50;;;4.00;99.90;;;;;;5017587;28;20210;-79
2023/11/25 00:57:16;;;;;;;28.87;2.60;;;4.00;99.90;;;;;;5017653;28;20213;-80
2023/11/25 00:59:43;;;;;;;28.10;2.47;;;3.90;99.90;;;;;;5019300;28;20167;-81
2023/11/25 01:02:08;;;;;;;19.95;2.05;;;3.90;99.90;;;;;;5001260;28;20252;-81
2023/11/25 01:04:34;;;;;;;24.17;2.40;;;3.90;99.90;;;;;;5018226;28;20268;-81
2023/11/25 01:07:02;;;;;;;23.30;3.20;;;3.90;99.90;;;;;;5018235;28;20158;-81
2023/11/25 01:09:30;;;;;;;24.13;2.35;;;4.00;99.90;;;;;;5000917;28;20170;-81
2023/11/25 01:11:56;;;;;;;19.95;1.50;;;3.90;99.90;;;;;;5017997;28;20188;-81
2023/11/25 01:14:22;;;;;;;22.03;1.93;;;4.00;99.90;;;;;;5018858;28;20731;-81
2023/11/25 01:16:50;;;;;;;19.70;2.05;;;4.00;99.90;;;;;;5000979;28;20169;-81
2023/11/25 01:19:15;;;;;;;18.65;1.75;;;3.90;99.90;;;;;;5018145;28;20162;-81
2023/11/25 01:21:41;;;;;;;23.03;2.30;;;4.00;99.90;;;;;;5018232;28;20223;-81
2023/11/25 01:24:10;;;;;;;19.60;2.30;;;4.00;99.90;;;;;;5000277;28;20284;-81
2023/11/25 01:26:36;;;;;;;21.73;3.08;;;4.00;99.90;;;;;;5001146;28;20922;-81
2023/11/25 01:29:02;;;;;;;24.80;2.37;;;4.00;99.90;;;;;;5018628;28;20247;-81
2023/11/25 01:31:28;;;;;;;21.55;2.50;;;3.90;99.90;;;;;;5000512;28;20628;-81
2023/11/25 01:33:55;;;;;;;22.08;1.98;;;4.00;99.90;;;;;;4999827;28;20206;-80
2023/11/25 01:36:21;;;;;;;19.95;2.70;;;4.00;99.90;;;;;;5000252;28;20170;-81
2023/11/25 01:38:48;;;;;;;21.45;2.42;;;3.90;99.90;;;;;;5000440;28;20260;-80
2023/11/25 01:41:13;;;;;;;27.45;4.00;;;3.90;99.90;;;;;;4999784;28;20673;-81
2023/11/25 01:43:39;;;;;;;27.43;2.73;;;4.00;99.90;;;;;;4999983;28;20189;-80
2023/11/25 01:46:06;;;;;;;22.43;3.33;;;3.90;99.90;;;;;;5018137;28;20171;-81
2023/11/25 01:48:33;;;;;;;27.17;3.20;;;3.90;99.90;;;;;;5018293;28;20162;-80
2023/11/25 01:51:02;;;;;;;25.60;3.60;;;4.00;99.90;;;;;;5017754;28;20180;-81
2023/11/25 01:53:28;;;;;;;22.35;3.30;;;4.00;99.90;;;;;;5017381;28;20589;-81
2023/11/25 01:55:54;;;;;;;25.80;3.40;;;4.10;99.90;;;;;;5000111;28;20193;-81
2023/11/25 01:58:20;;;;;;;25.08;3.80;;;4.10;99.90;;;;;;5018048;28;20413;-80
2023/11/25 02:00:46;;;;;;;21.67;3.87;;;4.00;99.90;;;;;;5017945;28;20678;-81
2023/11/25 02:03:16;;;;;;;22.95;3.42;;;4.00;99.90;;;;;;5017137;28;20655;-81
2023/11/25 02:05:45;;;;;;;21.98;2.72;;;4.00;99.90;;;;;;4999572;28;20194;-81
2023/11/25 02:08:11;;;;;;;26.63;3.88;;;4.00;99.90;;;;;;5016564;28;20166;-80
2023/11/25 02:10:39;;;;;;;22.52;3.40;;;4.00;99.90;;;;;;5016171;28;20165;-79
2023/11/25 02:13:11;;;;;;;23.70;3.58;;;4.00;99.90;;;;;;4997798;28;20224;-80
2023/11/25 02:15:38;;;;;;;33.75;3.58;;;4.00;99.90;;;;;;5016101;28;20153;-80
2023/11/25 02:18:04;;;;;;;20.55;2.22;;;4.00;99.90;;;;;;5015817;28;20173;-80
2023/11/25 02:20:36;;;;;;;20.50;2.45;;;3.90;99.90;;;;;;5016151;28;20228;-79
2023/11/25 02:23:02;;;;;;;19.02;2.00;;;3.90;99.90;;;;;;5016593;28;20173;-80
2023/11/25 02:25:28;;;;;;;22.15;2.30;;;3.90;99.90;;;;;;5016156;28;20177;-80
2023/11/25 02:27:55;;;;;;;24.63;2.63;;;3.90;99.90;;;;;;5016254;28;20166;-80
2023/11/25 02:30:23;;;;;;;19.45;2.53;;;3.90;99.90;;;;;;5016350;28;20456;-79
2023/11/25 02:32:49;;;;;;;22.38;2.08;;;3.80;99.90;;;;;;5016676;28;20666;-80
2023/11/25 02:35:16;;;;;;;26.48;2.70;;;3.80;99.90;;;;;;5016375;28;20193;-80
2023/11/25 02:37:45;;;;;;;22.55;3.00;;;3.80;99.90;;;;;;5016391;28;20532;-79
2023/11/25 02:40:17;;;;;;;26.45;2.42;;;3.70;99.90;;;;;;4998476;28;20257;-80
2023/11/25 02:42:47;;;;;;;22.90;2.45;;;3.70;99.90;;;;;;5016534;28;20161;-79
2023/11/25 02:45:22;;;;;;;27.50;2.65;;;3.70;99.90;;;;;;5016467;28;20265;-80
2023/11/25 02:47:48;;;;;;;23.48;3.63;;;3.70;99.90;;;;;;5016077;28;20162;-80
2023/11/25 02:50:23;;;;;;;26.30;2.80;;;3.70;99.90;;;;;;5016567;28;20210;-80
2023/11/25 02:52:49;;;;;;;21.40;2.88;;;3.60;99.90;;;;;;5016437;28;20259;-80
2023/11/25 02:55:15;;;;;;;22.37;2.87;;;3.70;99.90;;;;;;5016009;28;20695;-80
2023/11/25 02:57:45;;;;;;;21.33;2.67;;;3.70;99.90;;;;;;5016306;28;20293;-80
2023/11/25 03:02:59;;;;;;;28.48;3.05;;;3.60;99.90;;;;;;5016140;28;20151;-80
2023/11/25 03:05:31;;;;;;;32.28;4.25;;;3.60;99.90;;;;;;5015896;28;20153;-80
2023/11/25 03:07:57;;;;;;;24.00;4.15;;;3.60;99.90;;;;;;4998395;28;20166;-79
2023/11/25 03:10:26;;;;;;;26.27;4.50;;;3.60;99.90;;;;;;5016048;28;20175;-80
2023/11/25 03:12:52;;;;;;;32.10;4.68;;;3.60;99.90;;;;;;5015991;28;20197;-81
2023/11/25 03:15:18;;;;;;;25.33;3.90;;;3.50;99.90;;;;;;5015769;28;20258;-80
2023/11/25 03:17:44;;;;;;;27.53;3.77;;;3.60;99.90;;;;;;5015807;28;20216;-80
2023/11/25 03:20:10;;;;;;;28.17;3.57;;;3.60;99.90;;;;;;5020328;28;20199;-80
2023/11/25 03:22:36;;;;;;;24.48;2.88;;;3.60;99.90;;;;;;5002739;28;20180;-81
2023/11/25 03:25:02;;;;;;;24.87;3.90;;;3.70;99.90;;;;;;5020638;28;20238;-81
2023/11/25 03:27:35;;;;;;;24.60;3.67;;;3.70;99.90;;;;;;5020479;28;20168;-81
2023/11/25 03:30:02;;;;;;;34.25;3.58;;;3.70;99.90;;;;;;5002789;28;20162;-81
2023/11/25 03:32:28;;;;;;;35.25;4.45;;;3.70;99.90;;;;;;5002472;28;20167;-81
2023/11/25 03:34:55;;;;;;;21.77;3.20;;;3.60;99.90;;;;;;5019929;28;20190;-81
2023/11/25 03:37:21;;;;;;;21.75;3.05;;;3.70;99.90;;;;;;5020401;28;20158;-81
2023/11/25 03:39:47;;;;;;;23.40;3.00;;;3.60;99.90;;;;;;5020177;28;20165;-80
2023/11/25 03:42:12;;;;;;;25.47;3.23;;;3.70;99.90;;;;;;5020605;28;20164;-81
2023/11/25 03:44:38;;;;;;;33.70;4.80;;;3.70;99.90;;;;;;5002929;28;20566;-81
2023/11/25 03:47:04;;;;;;;26.30;3.47;;;3.70;99.90;;;;;;5002282;28;20177;-81
2023/11/25 03:49:30;;;;;;;22.30;2.50;;;3.70;99.90;;;;;;5020473;28;20167;-80
2023/11/25 03:51:56;;;;;;;25.83;3.20;;;3.70;99.90;;;;;;5002291;28;20229;-81
2023/11/25 03:54:22;;;;;;;23.17;3.27;;;3.60;99.90;;;;;;5020048;28;20210;-80
2023/11/25 03:56:48;;;;;;;26.37;3.10;;;3.60;99.90;;;;;;5019762;28;20426;-81
2023/11/25 03:59:14;;;;;;;24.05;2.92;;;3.70;99.90;;;;;;5002306;28;20168;-80
2023/11/25 04:01:42;;;;;;;22.67;2.90;;;3.70;99.90;;;;;;5001745;28;20175;-81
2023/11/25 04:04:10;;;;;;;26.67;3.80;;;3.70;99.90;;;;;;5019609;28;20223;-80
2023/11/25 04:06:36;;;;;;;22.52;2.80;;;3.60;99.90;;;;;;5019882;28;20170;-81
2023/11/25 04:09:01;;;;;;;21.60;3.35;;;3.60;99.90;;;;;;5019896;28;20171;-81
2023/11/25 04:11:27;;;;;;;23.60;2.20;;;3.60;99.90;;;;;;5019629;28;20169;-81
2023/11/25 04:13:56;;;;;;;24.40;3.10;;;3.70;99.90;;;;;;5002073;28;20201;-81
2023/11/25 04:16:22;;;;;;;26.20;3.25;;;3.70;99.90;;;;;;5019535;28;20165;-81
2023/11/25 04:18:48;;;;;;;23.80;2.95;;;3.70;99.90;;;;;;5019878;28;20185;-81
2023/11/25 04:21:14;;;;;;;22.53;3.47;;;3.70;99.90;;;;;;5019371;28;20163;-81
2023/11/25 04:23:40;;;;;;;27.35;3.45;;;3.70;99.90;;;;;;5019043;28;20197;-81
2023/11/25 04:26:06;;;;;;;25.30;2.80;;;3.70;99.90;;;;;;5019354;28;20202;-80
2023/11/25 04:28:33;;;;;;;31.05;3.65;;;3.80;99.90;;;;;;5002006;28;20701;-80
2023/11/25 04:30:59;;;;;;;23.83;3.70;;;3.80;99.90;;;;;;5017050;28;20174;-78
2023/11/25 04:33:25;;;;;;;26.48;3.45;;;3.80;99.90;;;;;;5017709;28;20252;-79
2023/11/25 04:35:53;;;;;;;27.67;3.30;;;3.80;99.90;;;;;;5017733;28;20171;-79
2023/11/25 04:38:19;;;;;;;24.75;3.33;;;3.80;99.90;;;;;;5017698;28;20631;-79
2023/11/25 04:40:45;;;;;;;27.23;3.77;;;3.80;99.90;;;;;;5017856;28;20216;-79
2023/11/25 04:43:10;;;;;;;23.13;2.27;;;3.80;99.90;;;;;;5000297;28;20178;-79
2023/11/25 04:45:36;;;;;;;24.70;2.83;;;3.80;99.90;;;;;;5017674;28;20233;-79
2023/11/25 04:48:02;;;;;;;25.43;3.70;;;3.80;99.90;;;;;;4999830;28;20647;-80
2023/11/25 04:50:28;;;;;;;22.20;2.33;;;3.80;99.90;;;;;;5017298;28;20250;-79
2023/11/25 04:52:54;;;;;;;28.45;2.85;;;3.80;99.90;;;;;;4999490;28;20194;-79
2023/11/25 04:55:21;;;;;;;23.60;2.50;;;3.80;99.90;;;;;;5017015;28;20182;-79
2023/11/25 04:57:47;;;;;;;25.27;4.03;;;3.80;99.90;;;;;;5015758;28;20166;-80
2023/11/25 05:00:14;;;;;;;19.40;2.45;;;3.80;99.90;;;;;;4999021;28;20174;-79
2023/11/25 05:02:42;;;;;;;24.75;3.00;;;3.80;99.90;;;;;;5016443;28;20198;-79
2023/11/25 05:05:08;;;;;;;26.63;4.10;;;3.80;99.90;;;;;;5016442;28;20193;-79
2023/11/25 05:07:34;;;;;;;24.90;3.00;;;3.80;99.90;;;;;;5016708;28;20197;-79
2023/11/25 05:10:00;;;;;;;24.38;2.88;;;3.90;99.90;;;;;;5016509;28;20161;-79
2023/11/25 05:12:27;;;;;;;34.88;3.85;;;3.90;99.90;;;;;;5016188;28;20501;-80
2023/11/25 05:14:53;;;;;;;23.98;2.58;;;3.90;99.90;;;;;;5016635;28;20194;-79
2023/11/25 05:17:19;;;;;;;32.83;3.65;;;3.90;99.90;;;;;;5016246;28;20249;-79
2023/11/25 05:19:45;;;;;;;21.30;2.70;;;3.80;99.90;;;;;;4998842;28;20170;-79
2023/11/25 05:22:11;;;;;;;23.73;3.60;;;3.80;99.90;;;;;;5016426;28;20536;-79
2023/11/25 05:24:36;;;;;;;32.63;3.70;;;3.80;99.90;;;;;;5016170;28;20216;-79
2023/11/25 05:27:03;;;;;;;26.43;4.00;;;3.80;99.90;;;;;;5016631;28;20212;-79
2023/11/25 05:29:29;;;;;;;30.70;3.20;;;3.80;99.90;;;;;;5016259;28;20174;-79
2023/11/25 05:31:55;;;;;;;25.65;3.60;;;3.90;99.90;;;;;;4998895;28;20183;-79
2023/11/25 05:34:20;;;;;;;27.07;5.43;;;3.90;99.90;;;;;;5015947;28;20677;-79
2023/11/25 05:36:47;;;;;;;23.90;3.00;;;3.90;99.90;;;;;;5015690;28;20401;-80
2023/11/25 05:39:13;;;;;;;30.50;3.38;;;3.90;99.90;;;;;;5015895;28;20220;-79
2023/11/25 05:41:43;;;;;;;26.23;3.15;;;4.00;99.90;;;;;;5000002;28;20166;-81
2023/11/25 05:44:10;;;;;;;23.23;3.17;;;4.00;99.90;;;;;;5018092;28;20182;-81
2023/11/25 05:46:36;;;;;;;23.17;2.70;;;4.00;99.90;;;;;;5000166;28;20639;-81
2023/11/25 05:49:04;;;;;;;27.70;3.30;;;4.10;99.90;;;;;;4999885;28;20178;-81
2023/11/25 05:51:34;;;;;;;26.20;2.72;;;4.10;99.90;;;;;;5000235;28;20695;-81
2023/11/25 05:54:00;;;;;;;23.13;2.88;;;4.00;99.90;;;;;;5000301;28;20241;-81
2023/11/25 05:56:29;;;;;;;27.83;2.70;;;4.00;99.90;;;;;;5018046;28;20193;-81
2023/11/25 05:58:56;;;;;;;27.92;4.00;;;4.10;99.90;;;;;;5017999;28;20315;-81
2023/11/25 06:01:22;;;;;;;22.60;3.75;;;4.10;99.90;;;;;;5000350;28;20260;-81
2023/11/25 06:03:50;;;;;;;23.38;3.25;;;4.10;99.90;;;;;;5017150;28;20197;-81
2023/11/25 06:06:18;;;;;;;25.85;3.58;;;4.10;99.90;;;;;;5017566;28;20170;-80
2023/11/25 06:08:45;;;;;;;27.73;2.92;;;4.10;99.90;;;;;;5017787;28;20170;-81
2023/11/25 06:11:21;;;;;;;29.65;3.40;;;4.10;99.90;;;;;;4999555;28;20178;-81
2023/11/25 06:13:47;;;;;;;22.00;2.88;;;4.10;99.90;;;;;;5017441;28;20198;-82
2023/11/25 06:16:14;;;;;;;25.70;2.60;;;4.10;99.90;;;;;;5017332;28;20189;-81
2023/11/25 06:18:39;;;;;;;24.27;2.30;;;4.10;99.90;;;;;;5017107;28;20185;-81
2023/11/25 06:21:05;;;;;;;26.30;2.73;;;4.20;99.90;;;;;;5017307;28;20246;-81
2023/11/25 06:23:32;;;;;;;20.40;2.47;;;4.20;99.90;;;;;;5017304;28;20194;-81
2023/11/25 06:25:59;;;;;;;20.30;2.47;;;4.20;99.90;;;;;;4999876;28;20638;-81
2023/11/25 06:28:24;;;;;;;21.90;2.15;;;4.20;99.90;;;;;;5017744;28;20171;-81
2023/11/25 06:30:53;;;;;;;20.57;2.07;;;4.20;99.90;;;;;;5017306;28;20711;-81
2023/11/25 06:33:26;;;;;;;26.45;2.35;;;4.20;99.90;;;;;;5017333;28;20465;-81
2023/11/25 06:35:55;;;;;;;24.90;2.90;;;4.20;99.90;;;;;;5017310;28;20163;-81
2023/11/25 06:38:21;;;;;;;27.88;3.40;;;4.20;99.90;;;;;;5016649;28;20161;-81
2023/11/25 06:40:47;;;;;;;23.67;1.73;;;4.20;99.90;;;;;;5016997;28;20159;-81
2023/11/25 06:43:13;;;;;;;24.83;4.13;;;4.30;99.90;;;;;;4983301;28;20589;-81
2023/11/25 06:45:40;;;;;;;24.20;2.33;;;4.30;99.90;;;;;;5017147;28;20245;-81
2023/11/25 06:48:07;;;;;;;29.48;3.10;;;4.30;99.90;;;;;;5017105;28;20441;-81
2023/11/25 06:50:34;;;;;;;25.80;2.60;;;4.30;99.90;;;;;;5016784;28;20177;-81
2023/11/25 06:53:00;;;;;;;19.52;2.33;;;4.30;99.90;;;;;;5015978;28;20186;-80
2023/11/25 06:55:25;;;;;;;22.87;3.50;;;4.30;99.90;;;;;;5002472;28;20186;-80
2023/11/25 06:57:51;;;;;;;24.80;3.60;;;4.40;99.90;;;;;;5019642;28;20227;-79
2023/11/25 07:00:17;;;;;;;20.50;4.20;;;4.40;99.90;;;;;;5019543;28;20632;-80
2023/11/25 07:02:43;;;;;;;27.40;3.00;;;4.40;99.90;;;;;;5020011;28;20166;-78
2023/11/25 07:05:13;;;;;;;30.07;3.50;;;4.40;99.90;;;;;;5019065;28;20187;-80
2023/11/25 07:07:39;;;;;;;26.52;3.05;;;4.40;99.90;;;;;;5019463;28;20161;-80
2023/11/25 07:10:09;;;;;;;22.23;3.27;;;4.40;99.90;;;;;;5001542;28;20173;-78
2023/11/25 07:12:36;;;;;;;24.20;2.97;;;4.40;99.90;;;;;;5019419;28;20147;-78
2023/11/25 07:15:04;;;;;;;23.08;3.45;;;4.40;99.90;;;;;;5019316;28;20262;-79
2023/11/25 07:17:30;;;;;;;21.67;2.40;;;4.50;99.90;;;;;;5018997;28;20579;-78
2023/11/25 07:19:55;;;;;;;20.97;2.27;;;4.50;99.90;;;;;;5019903;28;20173;-79
2023/11/25 07:22:21;;;;;;;27.83;3.17;;;4.40;99.90;;;;;;5019117;28;20251;-79
2023/11/25 07:24:46;;;;;;;28.57;2.40;;;4.40;99.90;;;;;;5019229;28;20190;-79
2023/11/25 07:27:18;;;;;;;26.33;2.50;;;4.40;99.90;;;;;;5019858;28;20179;-78
2023/11/25 07:29:46;;;;;;;25.90;2.38;;;4.40;99.90;;;;;;5019951;28;20182;-80
2023/11/25 07:32:12;;;;;;;24.85;2.75;;;4.40;99.90;;;;;;5019809;28;20167;-79
2023/11/25 07:34:38;;;;;;;26.75;2.75;;;4.30;99.90;;;;;;5019107;28;20202;-79
2023/11/25 07:37:05;;;;;;;21.35;2.97;;;4.30;99.90;;;;;;5019276;28;20536;-79
2023/11/25 07:39:33;;;;;;;23.77;2.90;;;4.40;99.90;;;;;;5019573;28;20165;-80
2023/11/25 07:42:00;;;;;;;31.70;2.83;;;4.30;99.90;;;;;;5019277;28;20158;-80
2023/11/25 07:44:32;;;;;;;24.00;2.60;;;4.40;99.90;;;;;;5019397;28;20182;-80
2023/11/25 07:47:01;;;;;;;27.55;2.75;;;4.40;99.90;;;;;;5019440;28;20171;-80
2023/11/25 07:49:29;;;;;;;21.83;2.40;;;4.40;99.90;;;;;;4985742;28;20588;-80
2023/11/25 07:51:55;;;;;;;29.67;2.75;;;4.40;99.90;;;;;;5019176;28;20171;-80
2023/11/25 07:54:21;;;;;;;25.77;3.70;;;4.40;99.90;;;;;;5018307;28;20198;-80
2023/11/25 07:56:47;;;;;;;26.03;3.23;;;4.40;99.90;;;;;;5018839;28;20445;-80
2023/11/25 07:59:13;;;;;;;25.15;2.13;;;4.40;99.90;;;;;;5001234;28;20254;-80
2023/11/25 08:01:39;;;;;;;22.80;2.50;;;4.40;99.90;;;;;;5001997;28;20175;-81
2023/11/25 08:04:05;;;;;;;22.67;2.37;;;4.40;99.90;;;;;;5020011;28;20197;-81
2023/11/25 08:06:31;;;;;;;24.13;2.70;;;4.40;99.90;;;;;;5019872;28;20162;-81
2023/11/25 08:08:56;;;;;;;27.85;3.15;;;4.40;99.90;;;;;;5019571;28;20158;-81
2023/11/25 08:11:26;;;;;;;23.00;3.13;;;4.50;99.90;;;;;;5002039;28;20171;-81
2023/11/25 08:13:52;;;;;;;25.08;3.03;;;4.50;99.90;;;;;;5019241;28;20197;-81
2023/11/25 08:16:18;;;;;;;22.40;2.83;;;4.60;99.90;;;;;;5019064;28;20666;-81
2023/11/25 08:18:45;;;;;;;25.03;3.00;;;4.60;99.90;;;;;;5019375;28;20175;-81
2023/11/25 08:21:13;;;;;;;30.98;3.85;;;4.60;99.90;;;;;;5020002;28;20413;-81
2023/11/25 08:23:39;;;;;;;24.88;4.18;;;4.70;99.90;;;;;;5019814;28;20667;-81
2023/11/25 08:26:05;;;;;;;27.20;3.85;;;4.80;99.90;;;;;;5019598;28;20178;-81
2023/11/25 08:28:30;;;;;;;28.50;3.60;;;4.80;99.90;;;;;;5020145;28;20497;-81
2023/11/25 08:30:57;;;;;;;26.80;3.20;;;4.80;99.90;;;;;;5019713;28;20174;-81
2023/11/25 08:33:25;;;;;;;25.52;3.08;;;4.80;99.90;;;;;;5019322;28;20206;-81
2023/11/25 08:35:50;;;;;;;23.58;3.60;;;4.90;99.90;;;;;;5001954;28;20646;-81
2023/11/25 08:38:16;;;;;;;23.60;3.50;;;4.90;99.90;;;;;;5019514;28;20186;-81
2023/11/25 08:40:42;;;;;;;23.03;2.60;;;4.90;99.90;;;;;;5019574;28;20166;-81
2023/11/25 08:43:13;;;;;;;23.73;2.30;;;4.90;99.90;;;;;;5019728;28;20170;-81
2023/11/25 08:45:39;;;;;;;25.48;2.72;;;4.80;99.90;;;;;;5018944;28;20233;-81
2023/11/25 08:48:08;;;;;;;19.67;1.90;;;4.80;99.90;;;;;;5019472;28;20194;-81
2023/11/25 08:50:33;;;;;;;26.10;3.75;;;4.80;99.90;;;;;;5019265;28;20166;-81
2023/11/25 08:53:02;;;;;;;25.73;2.80;;;4.90;99.90;;;;;;5019763;28;20598;-81
2023/11/25 08:55:28;;;;;;;26.48;2.95;;;4.90;99.90;;;;;;5002024;28;20181;-81
2023/11/25 08:57:53;;;;;;;24.05;2.63;;;4.80;99.90;;;;;;5019026;28;20665;-81
2023/11/25 09:00:20;;;;;;;24.13;3.00;;;4.80;99.90;;;;;;5019123;28;20163;-81
2023/11/25 09:02:50;;;;;;;25.33;2.55;;;4.80;99.90;;;;;;5018519;28;20166;-79
2023/11/25 09:05:22;;;;;;;26.13;3.28;;;4.90;99.90;;;;;;5018674;28;20571;-80
2023/11/25 09:07:55;;;;;;;25.67;2.83;;;4.80;99.90;;;;;;5018354;28;20161;-80
2023/11/25 09:10:22;;;;;;;26.92;3.10;;;4.90;99.90;;;;;;5018135;28;20162;-80
2023/11/25 09:12:51;;;;;;;23.77;3.40;;;4.90;99.90;;;;;;5016376;28;20167;-80
2023/11/25 09:15:16;;;;;;;28.58;3.90;;;5.00;99.90;;;;;;5016499;28;20178;-80
2023/11/25 09:17:42;;;;;;;27.43;3.97;;;4.90;99.90;;;;;;5038994;22;20255;-80
2023/11/25 09:20:11;;;;;;;20.47;2.40;;;5.00;99.90;;;;;;5017917;28;20404;-80
2023/11/25 09:22:38;;;;;;;24.15;3.13;;;5.00;99.90;;;;;;5017864;28;20345;-79
2023/11/25 09:25:04;;;;;;;23.92;3.33;;;5.00;99.90;;;;;;5035813;28;20178;-80
2023/11/25 09:27:30;;;;;;;29.15;3.15;;;5.10;99.90;;;;;;5036055;28;20238;-80
2023/11/25 09:29:56;;;;;;;24.10;3.30;;;5.30;99.90;;;;;;5035866;28;20648;-80
2023/11/25 09:32:24;;;;;;;24.40;2.80;;;5.40;99.90;;;;;;5034928;28;20157;-79
2023/11/25 09:34:53;;;;;;;29.80;2.97;;;5.50;99.90;;;;;;5034441;28;20464;-80
2023/11/25 09:37:19;;;;;;;24.63;3.17;;;5.50;99.90;;;;;;5017845;28;20166;-80
2023/11/25 09:39:45;;;;;;;24.25;2.67;;;5.60;99.90;;;;;;5016100;28;20192;-79
2023/11/25 09:42:11;;;;;;;24.58;3.70;;;5.50;99.90;;;;;;5035396;28;20154;-80
2023/11/25 09:44:39;;;;;;;23.33;3.25;;;5.50;99.90;;;;;;5017175;28;20197;-81
2023/11/25 09:47:05;;;;;;;27.30;3.20;;;5.40;99.90;;;;;;5035173;28;20626;-80
2023/11/25 09:49:31;;;;;;;23.70;3.47;;;5.50;99.90;;;;;;5035050;28;20158;-81
2023/11/25 09:52:04;;;;;;;26.00;3.30;;;5.60;99.90;;;;;;5017725;28;20174;-81
2023/11/25 09:54:30;;;;;;;23.35;2.97;;;5.60;99.90;;;;;;5017467;28;20205;-80
2023/11/25 09:56:58;;;;;;;24.98;3.70;;;5.70;99.90;;;;;;5017452;28;20196;-80
2023/11/25 09:59:24;;;;;;;26.75;3.28;;;5.80;99.90;;;;;;5017281;28;20177;-79
2023/11/25 10:01:50;;;;;;;24.23;3.50;;;5.90;99.90;;;;;;5034887;28;20159;-80
2023/11/25 10:04:16;;;;;;;26.77;4.75;;;5.90;99.90;;;;;;5034753;28;20447;-80
2023/11/25 10:06:47;;;;;;;26.37;3.90;;;6.00;99.90;;;;;;5035371;28;20578;-80
2023/11/25 10:09:15;;;;;;;30.45;3.78;;;6.10;99.90;;;;;;5017152;28;20408;-80
2023/11/25 10:11:44;;;;;;;27.05;3.03;;;6.10;99.90;;;;;;5016696;28;20165;-80
2023/11/25 10:14:13;;;;;;;23.25;3.42;;;6.10;99.90;;;;;;5034605;28;20708;-80
2023/11/25 10:16:43;;;;;;;26.75;2.80;;;6.20;99.90;;;;;;5017832;28;20653;-81
2023/11/25 10:19:29;;;;;;;32.78;3.10;;;6.20;99.90;;;;;;5017636;28;20696;-81
2023/11/25 10:21:56;;;;;;;25.27;4.00;;;6.20;99.90;;;;;;5034667;28;20642;-81
2023/11/25 10:24:23;;;;;;;25.33;2.72;;;6.30;99.90;;;;;;5034727;28;20197;-80
2023/11/25 10:26:50;;;;;;;21.70;2.95;;;6.30;99.90;;;;;;5034982;28;20196;-80
2023/11/25 10:29:19;;;;;;;30.83;3.05;;;6.40;99.90;;;;;;5016327;28;20170;-80
2023/11/25 10:31:51;;;;;;;23.10;2.83;;;6.50;99.90;;;;;;5017512;28;20178;-81
2023/11/25 10:34:17;;;;;;;22.52;3.08;;;6.50;99.90;;;;;;5017035;28;20232;-80
2023/11/25 10:37:14;;;;;;;25.20;2.50;;;6.50;99.90;;;;;;5034885;28;20216;-80
2023/11/25 10:40:21;;;;;;;;;;;;;;;;;;;;;
2023/11/25 10:43:04;;;;;;;20.90;2.28;;;6.50;99.90;;;;;;5035085;28;20172;-81
2023/11/25 10:45:33;;;;;;;22.40;2.40;;;6.50;99.90;;;;;;5012358;28;20177;-80
2023/11/25 10:47:58;;;;;;;25.30;2.95;;;6.40;99.90;;;;;;5034742;28;20180;-81
2023/11/25 10:50:25;;;;;;;23.00;2.33;;;6.30;99.90;;;;;;5017681;28;20177;-80
2023/11/25 10:52:57;;;;;;;22.23;2.15;;;6.30;99.90;;;;;;5034497;28;20919;-81
2023/11/25 10:55:25;;;;;;;21.25;2.47;;;6.20;99.90;;;;;;5035203;28;20234;-80
2023/11/25 10:57:52;;;;;;;20.50;2.10;;;6.20;99.90;;;;;;5016790;28;20260;-80
2023/11/25 11:00:19;;;;;;;30.55;3.55;;;6.40;99.90;;;;;;5017421;28;20174;-80
2023/11/25 11:02:54;;;;;;;22.50;2.40;;;6.60;99.90;;;;;;5017129;28;20170;-81
2023/11/25 11:05:38;;;;;;;22.63;2.70;;;6.60;99.90;;;;;;5036005;28;20606;-81
2023/11/25 11:08:11;;;;;;;21.35;1.95;;;6.80;99.90;;;;;;5035239;28;20250;-81
2023/11/25 11:10:47;;;;;;;23.23;1.88;;;6.80;99.90;;;;;;5035516;28;20538;-81
2023/11/25 11:13:14;;;;;;;20.35;1.65;;;6.90;99.90;;;;;;5034988;28;20236;-81
2023/11/25 11:15:46;;;;;;;22.00;1.83;;;6.90;99.90;;;;;;5017301;28;20170;-81
2023/11/25 11:18:19;;;;;;;21.58;1.67;;;6.80;99.90;;;;;;5035052;28;20174;-80
2023/11/25 11:20:51;;;;;;;17.67;1.17;;;6.70;99.90;;;;;;5035221;28;20178;-81
2023/11/25 11:23:19;;;;;;;18.42;1.80;;;6.60;99.90;;;;;;5034547;28;20236;-80
2023/11/25 11:25:55;;;;;;;18.95;1.92;;;6.60;99.90;;;;;;5034581;28;20178;-81
2023/11/25 11:28:32;;;;;;;21.52;2.38;;;6.60;99.90;;;;;;5034779;28;20154;-80
2023/11/25 11:31:16;;;;;;;22.60;2.40;;;6.70;99.90;;;;;;5034926;28;20153;-81
2023/11/25 11:33:42;;;;;;;19.80;2.28;;;6.70;99.90;;;;;;5033926;28;20566;-81
2023/11/25 11:36:19;;;;;;;31.73;2.23;;;6.70;99.90;;;;;;5035251;28;20174;-80
2023/11/25 11:38:48;;;;;;;19.17;1.50;;;6.80;99.90;;;;;;5016930;28;20917;-81
2023/11/25 11:41:19;;;;;;;18.73;2.00;;;6.90;99.90;;;;;;5038493;28;20174;-80
2023/11/25 11:44:02;;;;;;;22.55;2.25;;;6.90;99.90;;;;;;5020427;28;20192;-80
2023/11/25 11:46:37;;;;;;;20.55;2.00;;;7.00;99.90;;;;;;5037761;28;20244;-80
2023/11/25 11:49:11;;;;;;;22.70;2.50;;;7.10;99.90;;;;;;5020059;28;20173;-80
2023/11/25 11:51:57;;;;;;;19.95;2.10;;;7.20;99.90;;;;;;5020082;28;20153;-81
2023/11/25 11:54:24;;;;;;;22.05;2.35;;;7.20;99.90;;;;;;5037680;28;20280;-81
2023/11/25 11:57:03;;;;;;;18.42;1.50;;;7.30;99.90;;;;;;5019966;28;20213;-81
2023/11/25 12:00:01;;;;;;;23.20;2.45;;;7.30;99.90;;;;;;5037709;28;20166;-81
2023/11/25 12:02:37;;;;;;;18.23;1.85;;;7.30;99.90;;;;;;5038580;28;20626;-81
2023/11/25 12:05:04;;;;;;;18.73;1.95;;;7.30;99.90;;;;;;5037836;28;20178;-81
2023/11/25 12:07:30;;;;;;;19.27;2.55;;;7.30;99.90;;;;;;5019821;28;20196;-81
2023/11/25 12:09:57;;;;;;;19.88;1.70;;;7.30;99.90;;;;;;5037300;28;20658;-81
2023/11/25 12:12:26;;;;;;;19.40;2.13;;;7.30;99.90;;;;;;5037484;28;20201;-81
2023/11/25 12:14:52;;;;;;;19.40;1.95;;;7.20;99.90;;;;;;5037210;28;20689;-81
2023/11/25 12:17:18;;;;;;;19.83;1.83;;;7.20;99.90;;;;;;5037260;28;20186;-79
2023/11/25 12:19:43;;;;;;;18.90;1.67;;;7.20;99.90;;;;;;5037106;28;20182;-80
2023/11/25 12:22:11;;;;;;;20.43;2.20;;;7.10;99.90;;;;;;5037327;28;20165;-79
2023/11/25 12:24:41;;;;;;;20.52;1.75;;;7.00;99.90;;;;;;5019574;28;20193;-79
2023/11/25 12:27:10;;;;;;;19.48;1.90;;;7.00;99.90;;;;;;5037272;28;20166;-79
2023/11/25 12:29:36;;;;;;;21.83;2.42;;;6.80;99.90;;;;;;5036954;28;20164;-79
2023/11/25 12:32:02;;;;;;;19.37;1.70;;;6.80;99.90;;;;;;5036759;28;20162;-79
2023/11/25 12:34:32;;;;;;;21.03;2.00;;;6.80;99.90;;;;;;5037334;28;20452;-79
2023/11/25 12:36:59;;;;;;;25.08;2.50;;;6.80;99.90;;;;;;5019397;28;20409;-79
2023/11/25 12:39:26;;;;;;;22.00;1.95;;;6.80;99.90;;;;;;5036823;28;20174;-79
2023/11/25 12:41:52;;;;;;;21.90;2.20;;;6.80;99.90;;;;;;5036617;28;20165;-79
2023/11/25 12:44:19;;;;;;;21.77;2.60;;;6.80;99.90;;;;;;5018925;28;20190;-79
2023/11/25 12:47:00;;;;;;;23.80;2.33;;;6.80;99.90;;;;;;5036318;28;20496;-80
2023/11/25 12:49:26;;;;;;;23.13;2.10;;;6.90;99.90;;;;;;5036729;28;20641;-80
2023/11/25 12:51:52;;;;;;;22.03;2.20;;;6.90;99.90;;;;;;5035466;28;20197;-80
2023/11/25 12:54:19;;;;;;;22.00;2.55;;;7.00;99.90;;;;;;5018676;28;20292;-79